<?xml version="1.0" encoding="UTF-8" standalone="no" ?><gpx xmlns="http://www.topografix.com/GPX/1/1" xmlns:gpxx="http://www.garmin.com/xmlschemas/GpxExtensions/v3" xmlns:wptx1="http://www.garmin.com/xmlschemas/WaypointExtension/v1" xmlns:gpxtpx="http://www.garmin.com/xmlschemas/TrackPointExtension/v1" creator="GuideVTT.com" version="1.1" xmlns:xsi="http://www.w3.org/2001/XMLSchema-instance" xsi:schemaLocation="http://www.topografix.com/GPX/1/1 http://www.topografix.com/GPX/1/1/gpx.xsd http://www.garmin.com/xmlschemas/GpxExtensions/v3 http://www8.garmin.com/xmlschemas/GpxExtensionsv3.xsd http://www.garmin.com/xmlschemas/WaypointExtension/v1 http://www8.garmin.com/xmlschemas/WaypointExtensionv1.xsd http://www.garmin.com/xmlschemas/TrackPointExtension/v1 http://www.garmin.com/xmlschemas/TrackPointExtensionv1.xsd">
<metadata><link href="http://www.garmin.com"><text>Garmin International</text></link><time>2013-06-22T15:13:50Z</time></metadata>
<trk><name>marchissy.gpx</name><extensions><gpxx:TrackExtension><gpxx:DisplayColor>Cyan</gpxx:DisplayColor></gpxx:TrackExtension></extensions><trkseg>
<trkpt lat="46.49208052" lon="6.24052464"><ele></ele><time>2014-6-6T20:21:18Z</time></trkpt>
<trkpt lat="46.49204481" lon="6.24057812"><ele></ele><time>2014-6-6T20:21:21Z</time></trkpt>
<trkpt lat="46.49207273" lon="6.24055523"><ele></ele><time>2014-6-6T20:21:24Z</time></trkpt>
<trkpt lat="46.49209511" lon="6.24059094"><ele></ele><time>2014-6-6T20:21:27Z</time></trkpt>
<trkpt lat="46.49214607" lon="6.24055448"><ele></ele><time>2014-6-6T20:21:30Z</time></trkpt>
<trkpt lat="46.49234874" lon="6.24062195"><ele></ele><time>2014-6-6T20:21:33Z</time></trkpt>
<trkpt lat="46.49248922" lon="6.24075590"><ele></ele><time>2014-6-6T20:21:36Z</time></trkpt>
<trkpt lat="46.49253096" lon="6.24084491"><ele></ele><time>2014-6-6T20:21:39Z</time></trkpt>
<trkpt lat="46.49259073" lon="6.24089663"><ele></ele><time>2014-6-6T20:21:42Z</time></trkpt>
<trkpt lat="46.49261562" lon="6.24097198"><ele></ele><time>2014-6-6T20:21:45Z</time></trkpt>
<trkpt lat="46.49269634" lon="6.24099696"><ele></ele><time>2014-6-6T20:21:48Z</time></trkpt>
<trkpt lat="46.49270816" lon="6.24105086"><ele></ele><time>2014-6-6T20:21:51Z</time></trkpt>
<trkpt lat="46.49274244" lon="6.24108329"><ele></ele><time>2014-6-6T20:21:54Z</time></trkpt>
<trkpt lat="46.49282668" lon="6.24112604"><ele></ele><time>2014-6-6T20:21:57Z</time></trkpt>
<trkpt lat="46.49288686" lon="6.24122386"><ele></ele><time>2014-6-6T20:22:0Z</time></trkpt>
<trkpt lat="46.49305156" lon="6.24137817"><ele></ele><time>2014-6-6T20:22:3Z</time></trkpt>
<trkpt lat="46.49342280" lon="6.24155025"><ele></ele><time>2014-6-6T20:22:6Z</time></trkpt>
<trkpt lat="46.49344878" lon="6.24116963"><ele></ele><time>2014-6-6T20:22:9Z</time></trkpt>
<trkpt lat="46.49344769" lon="6.24108572"><ele></ele><time>2014-6-6T20:22:12Z</time></trkpt>
<trkpt lat="46.49343344" lon="6.24090459"><ele></ele><time>2014-6-6T20:22:15Z</time></trkpt>
<trkpt lat="46.49338768" lon="6.24075414"><ele></ele><time>2014-6-6T20:22:18Z</time></trkpt>
<trkpt lat="46.49333605" lon="6.24057577"><ele></ele><time>2014-6-6T20:22:21Z</time></trkpt>
<trkpt lat="46.49335985" lon="6.24048742"><ele></ele><time>2014-6-6T20:22:24Z</time></trkpt>
<trkpt lat="46.49337502" lon="6.24036320"><ele></ele><time>2014-6-6T20:22:27Z</time></trkpt>
<trkpt lat="46.49336362" lon="6.23995224"><ele></ele><time>2014-6-6T20:22:30Z</time></trkpt>
<trkpt lat="46.49335164" lon="6.23963834"><ele></ele><time>2014-6-6T20:22:33Z</time></trkpt>
<trkpt lat="46.49335499" lon="6.23941345"><ele></ele><time>2014-6-6T20:22:36Z</time></trkpt>
<trkpt lat="46.49335013" lon="6.23897013"><ele></ele><time>2014-6-6T20:22:39Z</time></trkpt>
<trkpt lat="46.49334409" lon="6.23861097"><ele></ele><time>2014-6-6T20:22:42Z</time></trkpt>
<trkpt lat="46.49334468" lon="6.23824585"><ele></ele><time>2014-6-6T20:22:45Z</time></trkpt>
<trkpt lat="46.49333772" lon="6.23801057"><ele></ele><time>2014-6-6T20:22:48Z</time></trkpt>
<trkpt lat="46.49334879" lon="6.23785559"><ele></ele><time>2014-6-6T20:22:51Z</time></trkpt>
<trkpt lat="46.49342171" lon="6.23745468"><ele></ele><time>2014-6-6T20:22:54Z</time></trkpt>
<trkpt lat="46.49344065" lon="6.23738118"><ele></ele><time>2014-6-6T20:22:57Z</time></trkpt>
<trkpt lat="46.49344518" lon="6.23733642"><ele></ele><time>2014-6-6T20:23:0Z</time></trkpt>
<trkpt lat="46.49350301" lon="6.23715310"><ele></ele><time>2014-6-6T20:23:3Z</time></trkpt>
<trkpt lat="46.49359480" lon="6.23680031"><ele></ele><time>2014-6-6T20:23:6Z</time></trkpt>
<trkpt lat="46.49365665" lon="6.23667374"><ele></ele><time>2014-6-6T20:23:9Z</time></trkpt>
<trkpt lat="46.49370711" lon="6.23660283"><ele></ele><time>2014-6-6T20:23:12Z</time></trkpt>
<trkpt lat="46.49393309" lon="6.23632774"><ele></ele><time>2014-6-6T20:23:15Z</time></trkpt>
<trkpt lat="46.49397559" lon="6.23584502"><ele></ele><time>2014-6-6T20:23:18Z</time></trkpt>
<trkpt lat="46.49409050" lon="6.23557974"><ele></ele><time>2014-6-6T20:23:21Z</time></trkpt>
<trkpt lat="46.49476415" lon="6.23539894"><ele></ele><time>2014-6-6T20:23:24Z</time></trkpt>
<trkpt lat="46.49484353" lon="6.23535837"><ele></ele><time>2014-6-6T20:23:27Z</time></trkpt>
<trkpt lat="46.49497370" lon="6.23536348"><ele></ele><time>2014-6-6T20:23:30Z</time></trkpt>
<trkpt lat="46.49504528" lon="6.23537539"><ele></ele><time>2014-6-6T20:23:33Z</time></trkpt>
<trkpt lat="46.49532968" lon="6.23535912"><ele></ele><time>2014-6-6T20:23:36Z</time></trkpt>
<trkpt lat="46.49560360" lon="6.23540858"><ele></ele><time>2014-6-6T20:23:39Z</time></trkpt>
<trkpt lat="46.49572187" lon="6.23543171"><ele></ele><time>2014-6-6T20:23:42Z</time></trkpt>
<trkpt lat="46.49596520" lon="6.23553028"><ele></ele><time>2014-6-6T20:23:45Z</time></trkpt>
<trkpt lat="46.49617969" lon="6.23562785"><ele></ele><time>2014-6-6T20:23:48Z</time></trkpt>
<trkpt lat="46.49621188" lon="6.23565165"><ele></ele><time>2014-6-6T20:23:51Z</time></trkpt>
<trkpt lat="46.49644682" lon="6.23573715"><ele></ele><time>2014-6-6T20:23:54Z</time></trkpt>
<trkpt lat="46.49647121" lon="6.23574494"><ele></ele><time>2014-6-6T20:23:57Z</time></trkpt>
<trkpt lat="46.49705577" lon="6.23600847"><ele></ele><time>2014-6-6T20:24:0Z</time></trkpt>
<trkpt lat="46.49734134" lon="6.23615976"><ele></ele><time>2014-6-6T20:24:3Z</time></trkpt>
<trkpt lat="46.49739448" lon="6.23619656"><ele></ele><time>2014-6-6T20:24:6Z</time></trkpt>
<trkpt lat="46.49780561" lon="6.23646059"><ele></ele><time>2014-6-6T20:24:9Z</time></trkpt>
<trkpt lat="46.49807543" lon="6.23646176"><ele></ele><time>2014-6-6T20:24:12Z</time></trkpt>
<trkpt lat="46.49834306" lon="6.23648297"><ele></ele><time>2014-6-6T20:24:15Z</time></trkpt>
<trkpt lat="46.49865713" lon="6.23651809"><ele></ele><time>2014-6-6T20:24:18Z</time></trkpt>
<trkpt lat="46.49876048" lon="6.23651063"><ele></ele><time>2014-6-6T20:24:21Z</time></trkpt>
<trkpt lat="46.49885645" lon="6.23633922"><ele></ele><time>2014-6-6T20:24:24Z</time></trkpt>
<trkpt lat="46.49884631" lon="6.23613118"><ele></ele><time>2014-6-6T20:24:27Z</time></trkpt>
<trkpt lat="46.49873860" lon="6.23574268"><ele></ele><time>2014-6-6T20:24:30Z</time></trkpt>
<trkpt lat="46.49870658" lon="6.23564478"><ele></ele><time>2014-6-6T20:24:33Z</time></trkpt>
<trkpt lat="46.49863039" lon="6.23552584"><ele></ele><time>2014-6-6T20:24:36Z</time></trkpt>
<trkpt lat="46.49854993" lon="6.23545929"><ele></ele><time>2014-6-6T20:24:39Z</time></trkpt>
<trkpt lat="46.49852126" lon="6.23524664"><ele></ele><time>2014-6-6T20:24:42Z</time></trkpt>
<trkpt lat="46.49853140" lon="6.23511328"><ele></ele><time>2014-6-6T20:24:45Z</time></trkpt>
<trkpt lat="46.49843652" lon="6.23487574"><ele></ele><time>2014-6-6T20:24:48Z</time></trkpt>
<trkpt lat="46.49842654" lon="6.23485235"><ele></ele><time>2014-6-6T20:24:51Z</time></trkpt>
<trkpt lat="46.49840031" lon="6.23453409"><ele></ele><time>2014-6-6T20:24:54Z</time></trkpt>
<trkpt lat="46.49830107" lon="6.23400302"><ele></ele><time>2014-6-6T20:24:57Z</time></trkpt>
<trkpt lat="46.49823518" lon="6.23381392"><ele></ele><time>2014-6-6T20:25:0Z</time></trkpt>
<trkpt lat="46.49824893" lon="6.23369741"><ele></ele><time>2014-6-6T20:25:3Z</time></trkpt>
<trkpt lat="46.49810334" lon="6.23333154"><ele></ele><time>2014-6-6T20:25:6Z</time></trkpt>
<trkpt lat="46.49808909" lon="6.23324177"><ele></ele><time>2014-6-6T20:25:9Z</time></trkpt>
<trkpt lat="46.49786521" lon="6.23253409"><ele></ele><time>2014-6-6T20:25:12Z</time></trkpt>
<trkpt lat="46.49782539" lon="6.23210502"><ele></ele><time>2014-6-6T20:25:15Z</time></trkpt>
<trkpt lat="46.49771098" lon="6.23175449"><ele></ele><time>2014-6-6T20:25:18Z</time></trkpt>
<trkpt lat="46.49763521" lon="6.23143321"><ele></ele><time>2014-6-6T20:25:21Z</time></trkpt>
<trkpt lat="46.49759816" lon="6.23108603"><ele></ele><time>2014-6-6T20:25:24Z</time></trkpt>
<trkpt lat="46.49755717" lon="6.23074447"><ele></ele><time>2014-6-6T20:25:27Z</time></trkpt>
<trkpt lat="46.49753345" lon="6.23055613"><ele></ele><time>2014-6-6T20:25:30Z</time></trkpt>
<trkpt lat="46.49741954" lon="6.23011448"><ele></ele><time>2014-6-6T20:25:33Z</time></trkpt>
<trkpt lat="46.49725886" lon="6.22968575"><ele></ele><time>2014-6-6T20:25:36Z</time></trkpt>
<trkpt lat="46.49708066" lon="6.22931795"><ele></ele><time>2014-6-6T20:25:39Z</time></trkpt>
<trkpt lat="46.49694915" lon="6.22901771"><ele></ele><time>2014-6-6T20:25:42Z</time></trkpt>
<trkpt lat="46.49681160" lon="6.22864338"><ele></ele><time>2014-6-6T20:25:45Z</time></trkpt>
<trkpt lat="46.49670867" lon="6.22826125"><ele></ele><time>2014-6-6T20:25:48Z</time></trkpt>
<trkpt lat="46.49662142" lon="6.22784777"><ele></ele><time>2014-6-6T20:25:51Z</time></trkpt>
<trkpt lat="46.49656509" lon="6.22766403"><ele></ele><time>2014-6-6T20:25:54Z</time></trkpt>
<trkpt lat="46.49652930" lon="6.22749522"><ele></ele><time>2014-6-6T20:25:57Z</time></trkpt>
<trkpt lat="46.49651413" lon="6.22745482"><ele></ele><time>2014-6-6T20:26:0Z</time></trkpt>
<trkpt lat="46.49652008" lon="6.22733521"><ele></ele><time>2014-6-6T20:26:3Z</time></trkpt>
<trkpt lat="46.49640500" lon="6.22692710"><ele></ele><time>2014-6-6T20:26:6Z</time></trkpt>
<trkpt lat="46.49639125" lon="6.22678067"><ele></ele><time>2014-6-6T20:26:9Z</time></trkpt>
<trkpt lat="46.49633224" lon="6.22638638"><ele></ele><time>2014-6-6T20:26:12Z</time></trkpt>
<trkpt lat="46.49622655" lon="6.22606007"><ele></ele><time>2014-6-6T20:26:15Z</time></trkpt>
<trkpt lat="46.49622420" lon="6.22603568"><ele></ele><time>2014-6-6T20:26:18Z</time></trkpt>
<trkpt lat="46.49618874" lon="6.22590140"><ele></ele><time>2014-6-6T20:26:21Z</time></trkpt>
<trkpt lat="46.49618472" lon="6.22579923"><ele></ele><time>2014-6-6T20:26:24Z</time></trkpt>
<trkpt lat="46.49614239" lon="6.22567425"><ele></ele><time>2014-6-6T20:26:27Z</time></trkpt>
<trkpt lat="46.49614415" lon="6.22560184"><ele></ele><time>2014-6-6T20:26:30Z</time></trkpt>
<trkpt lat="46.49607265" lon="6.22545197"><ele></ele><time>2014-6-6T20:26:33Z</time></trkpt>
<trkpt lat="46.49607282" lon="6.22538298"><ele></ele><time>2014-6-6T20:26:36Z</time></trkpt>
<trkpt lat="46.49602647" lon="6.22523303"><ele></ele><time>2014-6-6T20:26:39Z</time></trkpt>
<trkpt lat="46.49587124" lon="6.22480631"><ele></ele><time>2014-6-6T20:26:42Z</time></trkpt>
<trkpt lat="46.49567963" lon="6.22431287"><ele></ele><time>2014-6-6T20:26:45Z</time></trkpt>
<trkpt lat="46.49551601" lon="6.22380115"><ele></ele><time>2014-6-6T20:26:48Z</time></trkpt>
<trkpt lat="46.49546136" lon="6.22336102"><ele></ele><time>2014-6-6T20:26:51Z</time></trkpt>
<trkpt lat="46.49548902" lon="6.22324476"><ele></ele><time>2014-6-6T20:26:54Z</time></trkpt>
<trkpt lat="46.49549128" lon="6.22279968"><ele></ele><time>2014-6-6T20:26:57Z</time></trkpt>
<trkpt lat="46.49544275" lon="6.22238981"><ele></ele><time>2014-6-6T20:27:0Z</time></trkpt>
<trkpt lat="46.49542641" lon="6.22219367"><ele></ele><time>2014-6-6T20:27:3Z</time></trkpt>
<trkpt lat="46.49543504" lon="6.22215318"><ele></ele><time>2014-6-6T20:27:6Z</time></trkpt>
<trkpt lat="46.49542733" lon="6.22205026"><ele></ele><time>2014-6-6T20:27:9Z</time></trkpt>
<trkpt lat="46.49546354" lon="6.22183182"><ele></ele><time>2014-6-6T20:27:12Z</time></trkpt>
<trkpt lat="46.49560729" lon="6.22172730"><ele></ele><time>2014-6-6T20:27:15Z</time></trkpt>
<trkpt lat="46.49579840" lon="6.22189259"><ele></ele><time>2014-6-6T20:27:18Z</time></trkpt>
<trkpt lat="46.49588389" lon="6.22206132"><ele></ele><time>2014-6-6T20:27:21Z</time></trkpt>
<trkpt lat="46.49590929" lon="6.22208110"><ele></ele><time>2014-6-6T20:27:24Z</time></trkpt>
<trkpt lat="46.49601004" lon="6.22225167"><ele></ele><time>2014-6-6T20:27:27Z</time></trkpt>
<trkpt lat="46.49604600" lon="6.22231822"><ele></ele><time>2014-6-6T20:27:30Z</time></trkpt>
<trkpt lat="46.49617215" lon="6.22261746"><ele></ele><time>2014-6-6T20:27:33Z</time></trkpt>
<trkpt lat="46.49619604" lon="6.22269650"><ele></ele><time>2014-6-6T20:27:36Z</time></trkpt>
<trkpt lat="46.49637331" lon="6.22294595"><ele></ele><time>2014-6-6T20:27:39Z</time></trkpt>
<trkpt lat="46.49638404" lon="6.22296204"><ele></ele><time>2014-6-6T20:27:42Z</time></trkpt>
<trkpt lat="46.49656115" lon="6.22323336"><ele></ele><time>2014-6-6T20:27:45Z</time></trkpt>
<trkpt lat="46.49682241" lon="6.22346856"><ele></ele><time>2014-6-6T20:27:48Z</time></trkpt>
<trkpt lat="46.49693691" lon="6.22358523"><ele></ele><time>2014-6-6T20:27:51Z</time></trkpt>
<trkpt lat="46.49698762" lon="6.22365003"><ele></ele><time>2014-6-6T20:27:54Z</time></trkpt>
<trkpt lat="46.49714587" lon="6.22374482"><ele></ele><time>2014-6-6T20:27:57Z</time></trkpt>
<trkpt lat="46.49726917" lon="6.22379554"><ele></ele><time>2014-6-6T20:28:0Z</time></trkpt>
<trkpt lat="46.49735508" lon="6.22380760"><ele></ele><time>2014-6-6T20:28:3Z</time></trkpt>
<trkpt lat="46.49742960" lon="6.22386971"><ele></ele><time>2014-6-6T20:28:6Z</time></trkpt>
<trkpt lat="46.49768743" lon="6.22400173"><ele></ele><time>2014-6-6T20:28:9Z</time></trkpt>
<trkpt lat="46.49779145" lon="6.22402344"><ele></ele><time>2014-6-6T20:28:12Z</time></trkpt>
<trkpt lat="46.49809428" lon="6.22398907"><ele></ele><time>2014-6-6T20:28:15Z</time></trkpt>
<trkpt lat="46.49816025" lon="6.22397734"><ele></ele><time>2014-6-6T20:28:18Z</time></trkpt>
<trkpt lat="46.49817391" lon="6.22397482"><ele></ele><time>2014-6-6T20:28:21Z</time></trkpt>
<trkpt lat="46.49818079" lon="6.22410709"><ele></ele><time>2014-6-6T20:28:24Z</time></trkpt>
<trkpt lat="46.49840224" lon="6.22407046"><ele></ele><time>2014-6-6T20:28:27Z</time></trkpt>
<trkpt lat="46.49873005" lon="6.22406334"><ele></ele><time>2014-6-6T20:28:30Z</time></trkpt>
<trkpt lat="46.49879526" lon="6.22409234"><ele></ele><time>2014-6-6T20:28:33Z</time></trkpt>
<trkpt lat="46.49886190" lon="6.22408362"><ele></ele><time>2014-6-6T20:28:36Z</time></trkpt>
<trkpt lat="46.49892560" lon="6.22407281"><ele></ele><time>2014-6-6T20:28:39Z</time></trkpt>
<trkpt lat="46.49909693" lon="6.22410868"><ele></ele><time>2014-6-6T20:28:42Z</time></trkpt>
<trkpt lat="46.49917345" lon="6.22408974"><ele></ele><time>2014-6-6T20:28:45Z</time></trkpt>
<trkpt lat="46.49931050" lon="6.22409812"><ele></ele><time>2014-6-6T20:28:48Z</time></trkpt>
<trkpt lat="46.49937621" lon="6.22409360"><ele></ele><time>2014-6-6T20:28:51Z</time></trkpt>
<trkpt lat="46.49961677" lon="6.22407675"><ele></ele><time>2014-6-6T20:28:54Z</time></trkpt>
<trkpt lat="46.49991467" lon="6.22407993"><ele></ele><time>2014-6-6T20:28:57Z</time></trkpt>
<trkpt lat="46.49992942" lon="6.22407968"><ele></ele><time>2014-6-6T20:29:0Z</time></trkpt>
<trkpt lat="46.50005925" lon="6.22412452"><ele></ele><time>2014-6-6T20:29:3Z</time></trkpt>
<trkpt lat="46.50036503" lon="6.22432100"><ele></ele><time>2014-6-6T20:29:6Z</time></trkpt>
<trkpt lat="46.50050567" lon="6.22439769"><ele></ele><time>2014-6-6T20:29:9Z</time></trkpt>
<trkpt lat="46.50060601" lon="6.22441093"><ele></ele><time>2014-6-6T20:29:12Z</time></trkpt>
<trkpt lat="46.50084548" lon="6.22444823"><ele></ele><time>2014-6-6T20:29:15Z</time></trkpt>
<trkpt lat="46.50091832" lon="6.22444798"><ele></ele><time>2014-6-6T20:29:18Z</time></trkpt>
<trkpt lat="46.50130045" lon="6.22440825"><ele></ele><time>2014-6-6T20:29:21Z</time></trkpt>
<trkpt lat="46.50155643" lon="6.22435519"><ele></ele><time>2014-6-6T20:29:24Z</time></trkpt>
<trkpt lat="46.50176397" lon="6.22418102"><ele></ele><time>2014-6-6T20:29:27Z</time></trkpt>
<trkpt lat="46.50184820" lon="6.22380618"><ele></ele><time>2014-6-6T20:29:30Z</time></trkpt>
<trkpt lat="46.50194091" lon="6.22367878"><ele></ele><time>2014-6-6T20:29:33Z</time></trkpt>
<trkpt lat="46.50192264" lon="6.22369051"><ele></ele><time>2014-6-6T20:29:36Z</time></trkpt>
<trkpt lat="46.50174402" lon="6.22360887"><ele></ele><time>2014-6-6T20:29:39Z</time></trkpt>
<trkpt lat="46.50161175" lon="6.22328558"><ele></ele><time>2014-6-6T20:29:42Z</time></trkpt>
<trkpt lat="46.50147043" lon="6.22296112"><ele></ele><time>2014-6-6T20:29:45Z</time></trkpt>
<trkpt lat="46.50122752" lon="6.22247471"><ele></ele><time>2014-6-6T20:29:48Z</time></trkpt>
<trkpt lat="46.50100046" lon="6.22220809"><ele></ele><time>2014-6-6T20:29:51Z</time></trkpt>
<trkpt lat="46.50084279" lon="6.22192176"><ele></ele><time>2014-6-6T20:29:54Z</time></trkpt>
<trkpt lat="46.50069846" lon="6.22159470"><ele></ele><time>2014-6-6T20:29:57Z</time></trkpt>
<trkpt lat="46.50062713" lon="6.22141625"><ele></ele><time>2014-6-6T20:30:0Z</time></trkpt>
<trkpt lat="46.50046452" lon="6.22104728"><ele></ele><time>2014-6-6T20:30:3Z</time></trkpt>
<trkpt lat="46.50037207" lon="6.22061318"><ele></ele><time>2014-6-6T20:30:6Z</time></trkpt>
<trkpt lat="46.50029596" lon="6.22018754"><ele></ele><time>2014-6-6T20:30:9Z</time></trkpt>
<trkpt lat="46.50028925" lon="6.22012753"><ele></ele><time>2014-6-6T20:30:12Z</time></trkpt>
<trkpt lat="46.50023779" lon="6.22002988"><ele></ele><time>2014-6-6T20:30:15Z</time></trkpt>
<trkpt lat="46.50022019" lon="6.21993978"><ele></ele><time>2014-6-6T20:30:18Z</time></trkpt>
<trkpt lat="46.50024776" lon="6.21908365"><ele></ele><time>2014-6-6T20:30:21Z</time></trkpt>
<trkpt lat="46.50022689" lon="6.21860974"><ele></ele><time>2014-6-6T20:30:24Z</time></trkpt>
<trkpt lat="46.50032655" lon="6.21813289"><ele></ele><time>2014-6-6T20:30:27Z</time></trkpt>
<trkpt lat="46.50034374" lon="6.21809676"><ele></ele><time>2014-6-6T20:30:30Z</time></trkpt>
<trkpt lat="46.50035874" lon="6.21797145"><ele></ele><time>2014-6-6T20:30:33Z</time></trkpt>
<trkpt lat="46.50053895" lon="6.21758413"><ele></ele><time>2014-6-6T20:30:36Z</time></trkpt>
<trkpt lat="46.50073383" lon="6.21725840"><ele></ele><time>2014-6-6T20:30:39Z</time></trkpt>
<trkpt lat="46.50088035" lon="6.21702841"><ele></ele><time>2014-6-6T20:30:42Z</time></trkpt>
<trkpt lat="46.50108822" lon="6.21674526"><ele></ele><time>2014-6-6T20:30:45Z</time></trkpt>
<trkpt lat="46.50123691" lon="6.21661828"><ele></ele><time>2014-6-6T20:30:48Z</time></trkpt>
<trkpt lat="46.50139265" lon="6.21654150"><ele></ele><time>2014-6-6T20:30:51Z</time></trkpt>
<trkpt lat="46.50167872" lon="6.21650118"><ele></ele><time>2014-6-6T20:30:54Z</time></trkpt>
<trkpt lat="46.50181501" lon="6.21653622"><ele></ele><time>2014-6-6T20:30:57Z</time></trkpt>
<trkpt lat="46.50198089" lon="6.21665231"><ele></ele><time>2014-6-6T20:31:0Z</time></trkpt>
<trkpt lat="46.50217971" lon="6.21666916"><ele></ele><time>2014-6-6T20:31:3Z</time></trkpt>
<trkpt lat="46.50223570" lon="6.21669481"><ele></ele><time>2014-6-6T20:31:6Z</time></trkpt>
<trkpt lat="46.50232128" lon="6.21669958"><ele></ele><time>2014-6-6T20:31:9Z</time></trkpt>
<trkpt lat="46.50249688" lon="6.21686982"><ele></ele><time>2014-6-6T20:31:12Z</time></trkpt>
<trkpt lat="46.50277189" lon="6.21707509"><ele></ele><time>2014-6-6T20:31:15Z</time></trkpt>
<trkpt lat="46.50306526" lon="6.21718657"><ele></ele><time>2014-6-6T20:31:18Z</time></trkpt>
<trkpt lat="46.50341109" lon="6.21730543"><ele></ele><time>2014-6-6T20:31:21Z</time></trkpt>
<trkpt lat="46.50345300" lon="6.21735966"><ele></ele><time>2014-6-6T20:31:24Z</time></trkpt>
<trkpt lat="46.50373640" lon="6.21754607"><ele></ele><time>2014-6-6T20:31:27Z</time></trkpt>
<trkpt lat="46.50376556" lon="6.21758094"><ele></ele><time>2014-6-6T20:31:30Z</time></trkpt>
<trkpt lat="46.50429044" lon="6.21781949"><ele></ele><time>2014-6-6T20:31:33Z</time></trkpt>
<trkpt lat="46.50447073" lon="6.21805687"><ele></ele><time>2014-6-6T20:31:36Z</time></trkpt>
<trkpt lat="46.50464851" lon="6.21847772"><ele></ele><time>2014-6-6T20:31:39Z</time></trkpt>
<trkpt lat="46.50482479" lon="6.21864192"><ele></ele><time>2014-6-6T20:31:42Z</time></trkpt>
<trkpt lat="46.50507985" lon="6.21879766"><ele></ele><time>2014-6-6T20:31:45Z</time></trkpt>
<trkpt lat="46.50532418" lon="6.21897116"><ele></ele><time>2014-6-6T20:31:48Z</time></trkpt>
<trkpt lat="46.50578284" lon="6.21923176"><ele></ele><time>2014-6-6T20:31:51Z</time></trkpt>
<trkpt lat="46.50601837" lon="6.21932488"><ele></ele><time>2014-6-6T20:31:54Z</time></trkpt>
<trkpt lat="46.50651642" lon="6.21953904"><ele></ele><time>2014-6-6T20:31:57Z</time></trkpt>
<trkpt lat="46.50652765" lon="6.21954557"><ele></ele><time>2014-6-6T20:32:0Z</time></trkpt>
<trkpt lat="46.50665288" lon="6.21969888"><ele></ele><time>2014-6-6T20:32:3Z</time></trkpt>
<trkpt lat="46.50699511" lon="6.21985973"><ele></ele><time>2014-6-6T20:32:6Z</time></trkpt>
<trkpt lat="46.50729510" lon="6.21970693"><ele></ele><time>2014-6-6T20:32:9Z</time></trkpt>
<trkpt lat="46.50735687" lon="6.21967910"><ele></ele><time>2014-6-6T20:32:12Z</time></trkpt>
<trkpt lat="46.50740750" lon="6.21964465"><ele></ele><time>2014-6-6T20:32:15Z</time></trkpt>
<trkpt lat="46.50762535" lon="6.21930937"><ele></ele><time>2014-6-6T20:32:18Z</time></trkpt>
<trkpt lat="46.50774831" lon="6.21913587"><ele></ele><time>2014-6-6T20:32:21Z</time></trkpt>
<trkpt lat="46.50778988" lon="6.21906781"><ele></ele><time>2014-6-6T20:32:24Z</time></trkpt>
<trkpt lat="46.50801293" lon="6.21873932"><ele></ele><time>2014-6-6T20:32:27Z</time></trkpt>
<trkpt lat="46.50817143" lon="6.21840538"><ele></ele><time>2014-6-6T20:32:30Z</time></trkpt>
<trkpt lat="46.50831711" lon="6.21808126"><ele></ele><time>2014-6-6T20:32:33Z</time></trkpt>
<trkpt lat="46.50838332" lon="6.21791638"><ele></ele><time>2014-6-6T20:32:36Z</time></trkpt>
<trkpt lat="46.50855733" lon="6.21758765"><ele></ele><time>2014-6-6T20:32:39Z</time></trkpt>
<trkpt lat="46.50856504" lon="6.21754339"><ele></ele><time>2014-6-6T20:32:42Z</time></trkpt>
<trkpt lat="46.50862581" lon="6.21739930"><ele></ele><time>2014-6-6T20:32:45Z</time></trkpt>
<trkpt lat="46.50877149" lon="6.21711466"><ele></ele><time>2014-6-6T20:32:48Z</time></trkpt>
<trkpt lat="46.50904834" lon="6.21710317"><ele></ele><time>2014-6-6T20:32:51Z</time></trkpt>
<trkpt lat="46.50933785" lon="6.21741774"><ele></ele><time>2014-6-6T20:32:54Z</time></trkpt>
<trkpt lat="46.50957121" lon="6.21769225"><ele></ele><time>2014-6-6T20:32:57Z</time></trkpt>
<trkpt lat="46.50993641" lon="6.21803314"><ele></ele><time>2014-6-6T20:33:0Z</time></trkpt>
<trkpt lat="46.51028987" lon="6.21785654"><ele></ele><time>2014-6-6T20:33:3Z</time></trkpt>
<trkpt lat="46.51038526" lon="6.21772964"><ele></ele><time>2014-6-6T20:33:6Z</time></trkpt>
<trkpt lat="46.51040537" lon="6.21770047"><ele></ele><time>2014-6-6T20:33:9Z</time></trkpt>
<trkpt lat="46.51071869" lon="6.21719512"><ele></ele><time>2014-6-6T20:33:12Z</time></trkpt>
<trkpt lat="46.51085624" lon="6.21700913"><ele></ele><time>2014-6-6T20:33:15Z</time></trkpt>
<trkpt lat="46.51086931" lon="6.21699714"><ele></ele><time>2014-6-6T20:33:18Z</time></trkpt>
<trkpt lat="46.51116963" lon="6.21686898"><ele></ele><time>2014-6-6T20:33:21Z</time></trkpt>
<trkpt lat="46.51143593" lon="6.21684878"><ele></ele><time>2014-6-6T20:33:24Z</time></trkpt>
<trkpt lat="46.51174639" lon="6.21690284"><ele></ele><time>2014-6-6T20:33:27Z</time></trkpt>
<trkpt lat="46.51209592" lon="6.21703142"><ele></ele><time>2014-6-6T20:33:30Z</time></trkpt>
<trkpt lat="46.51215979" lon="6.21708892"><ele></ele><time>2014-6-6T20:33:33Z</time></trkpt>
<trkpt lat="46.51231896" lon="6.21734398"><ele></ele><time>2014-6-6T20:33:36Z</time></trkpt>
<trkpt lat="46.51242717" lon="6.21758807"><ele></ele><time>2014-6-6T20:33:39Z</time></trkpt>
<trkpt lat="46.51252775" lon="6.21779401"><ele></ele><time>2014-6-6T20:33:42Z</time></trkpt>
<trkpt lat="46.51271861" lon="6.21815284"><ele></ele><time>2014-6-6T20:33:45Z</time></trkpt>
<trkpt lat="46.51301047" lon="6.21833263"><ele></ele><time>2014-6-6T20:33:48Z</time></trkpt>
<trkpt lat="46.51310309" lon="6.21830120"><ele></ele><time>2014-6-6T20:33:51Z</time></trkpt>
<trkpt lat="46.51315137" lon="6.21831402"><ele></ele><time>2014-6-6T20:33:54Z</time></trkpt>
<trkpt lat="46.51348069" lon="6.21831922"><ele></ele><time>2014-6-6T20:33:57Z</time></trkpt>
<trkpt lat="46.51384992" lon="6.21850655"><ele></ele><time>2014-6-6T20:34:0Z</time></trkpt>
<trkpt lat="46.51426759" lon="6.21873463"><ele></ele><time>2014-6-6T20:34:3Z</time></trkpt>
<trkpt lat="46.51469674" lon="6.21864888"><ele></ele><time>2014-6-6T20:34:6Z</time></trkpt>
<trkpt lat="46.51487477" lon="6.21811193"><ele></ele><time>2014-6-6T20:34:9Z</time></trkpt>
<trkpt lat="46.51508113" lon="6.21726042"><ele></ele><time>2014-6-6T20:34:12Z</time></trkpt>
<trkpt lat="46.51481710" lon="6.21697845"><ele></ele><time>2014-6-6T20:34:15Z</time></trkpt>
<trkpt lat="46.51465341" lon="6.21642516"><ele></ele><time>2014-6-6T20:34:18Z</time></trkpt>
<trkpt lat="46.51478341" lon="6.21615157"><ele></ele><time>2014-6-6T20:34:21Z</time></trkpt>
<trkpt lat="46.51489204" lon="6.21611285"><ele></ele><time>2014-6-6T20:34:24Z</time></trkpt>
<trkpt lat="46.51505289" lon="6.21583633"><ele></ele><time>2014-6-6T20:34:27Z</time></trkpt>
<trkpt lat="46.51490478" lon="6.21534373"><ele></ele><time>2014-6-6T20:34:30Z</time></trkpt>
<trkpt lat="46.51472197" lon="6.21511188"><ele></ele><time>2014-6-6T20:34:33Z</time></trkpt>
<trkpt lat="46.51450035" lon="6.21465390"><ele></ele><time>2014-6-6T20:34:36Z</time></trkpt>
<trkpt lat="46.51432693" lon="6.21438425"><ele></ele><time>2014-6-6T20:34:39Z</time></trkpt>
<trkpt lat="46.51421218" lon="6.21408233"><ele></ele><time>2014-6-6T20:34:42Z</time></trkpt>
<trkpt lat="46.51407095" lon="6.21370758"><ele></ele><time>2014-6-6T20:34:45Z</time></trkpt>
<trkpt lat="46.51398227" lon="6.21346040"><ele></ele><time>2014-6-6T20:34:48Z</time></trkpt>
<trkpt lat="46.51410338" lon="6.21322721"><ele></ele><time>2014-6-6T20:34:51Z</time></trkpt>
<trkpt lat="46.51417606" lon="6.21326619"><ele></ele><time>2014-6-6T20:34:54Z</time></trkpt>
<trkpt lat="46.51434369" lon="6.21347146"><ele></ele><time>2014-6-6T20:34:57Z</time></trkpt>
<trkpt lat="46.51435610" lon="6.21348605"><ele></ele><time>2014-6-6T20:35:0Z</time></trkpt>
<trkpt lat="46.51440572" lon="6.21351077"><ele></ele><time>2014-6-6T20:35:3Z</time></trkpt>
<trkpt lat="46.51467897" lon="6.21376885"><ele></ele><time>2014-6-6T20:35:6Z</time></trkpt>
<trkpt lat="46.51487578" lon="6.21389575"><ele></ele><time>2014-6-6T20:35:9Z</time></trkpt>
<trkpt lat="46.51525179" lon="6.21405752"><ele></ele><time>2014-6-6T20:35:12Z</time></trkpt>
<trkpt lat="46.51558170" lon="6.21421686"><ele></ele><time>2014-6-6T20:35:15Z</time></trkpt>
<trkpt lat="46.51603382" lon="6.21421292"><ele></ele><time>2014-6-6T20:35:18Z</time></trkpt>
<trkpt lat="46.51655811" lon="6.21414646"><ele></ele><time>2014-6-6T20:35:21Z</time></trkpt>
<trkpt lat="46.51705851" lon="6.21447662"><ele></ele><time>2014-6-6T20:35:24Z</time></trkpt>
<trkpt lat="46.51765547" lon="6.21491977"><ele></ele><time>2014-6-6T20:35:27Z</time></trkpt>
<trkpt lat="46.51815168" lon="6.21518497"><ele></ele><time>2014-6-6T20:35:30Z</time></trkpt>
<trkpt lat="46.51837690" lon="6.21508464"><ele></ele><time>2014-6-6T20:35:33Z</time></trkpt>
<trkpt lat="46.51841520" lon="6.21504969"><ele></ele><time>2014-6-6T20:35:36Z</time></trkpt>
<trkpt lat="46.51828621" lon="6.21469237"><ele></ele><time>2014-6-6T20:35:39Z</time></trkpt>
<trkpt lat="46.51823441" lon="6.21455633"><ele></ele><time>2014-6-6T20:35:42Z</time></trkpt>
<trkpt lat="46.51822468" lon="6.21459430"><ele></ele><time>2014-6-6T20:35:45Z</time></trkpt>
<trkpt lat="46.51819300" lon="6.21465633"><ele></ele><time>2014-6-6T20:35:48Z</time></trkpt>
<trkpt lat="46.51818587" lon="6.21466228"><ele></ele><time>2014-6-6T20:35:51Z</time></trkpt>
<trkpt lat="46.51821563" lon="6.21465515"><ele></ele><time>2014-6-6T20:35:54Z</time></trkpt>
<trkpt lat="46.51826835" lon="6.21468198"><ele></ele><time>2014-6-6T20:35:57Z</time></trkpt>
<trkpt lat="46.51836424" lon="6.21482891"><ele></ele><time>2014-6-6T20:36:0Z</time></trkpt>
<trkpt lat="46.51837916" lon="6.21507224"><ele></ele><time>2014-6-6T20:36:3Z</time></trkpt>
<trkpt lat="46.51809200" lon="6.21517265"><ele></ele><time>2014-6-6T20:36:6Z</time></trkpt>
<trkpt lat="46.51785915" lon="6.21515497"><ele></ele><time>2014-6-6T20:36:9Z</time></trkpt>
<trkpt lat="46.51680093" lon="6.21443530"><ele></ele><time>2014-6-6T20:36:12Z</time></trkpt>
<trkpt lat="46.51628737" lon="6.21409994"><ele></ele><time>2014-6-6T20:36:15Z</time></trkpt>
<trkpt lat="46.51617388" lon="6.21410220"><ele></ele><time>2014-6-6T20:36:18Z</time></trkpt>
<trkpt lat="46.51576024" lon="6.21422986"><ele></ele><time>2014-6-6T20:36:21Z</time></trkpt>
<trkpt lat="46.51553552" lon="6.21423748"><ele></ele><time>2014-6-6T20:36:24Z</time></trkpt>
<trkpt lat="46.51527802" lon="6.21416682"><ele></ele><time>2014-6-6T20:36:27Z</time></trkpt>
<trkpt lat="46.51513570" lon="6.21410631"><ele></ele><time>2014-6-6T20:36:30Z</time></trkpt>
<trkpt lat="46.51491224" lon="6.21400899"><ele></ele><time>2014-6-6T20:36:33Z</time></trkpt>
<trkpt lat="46.51453782" lon="6.21378997"><ele></ele><time>2014-6-6T20:36:36Z</time></trkpt>
<trkpt lat="46.51431033" lon="6.21348898"><ele></ele><time>2014-6-6T20:36:39Z</time></trkpt>
<trkpt lat="46.51422878" lon="6.21335914"><ele></ele><time>2014-6-6T20:36:42Z</time></trkpt>
<trkpt lat="46.51408000" lon="6.21327055"><ele></ele><time>2014-6-6T20:36:45Z</time></trkpt>
<trkpt lat="46.51397430" lon="6.21347842"><ele></ele><time>2014-6-6T20:36:48Z</time></trkpt>
<trkpt lat="46.51398403" lon="6.21357062"><ele></ele><time>2014-6-6T20:36:51Z</time></trkpt>
<trkpt lat="46.51416734" lon="6.21404395"><ele></ele><time>2014-6-6T20:36:54Z</time></trkpt>
<trkpt lat="46.51426021" lon="6.21427353"><ele></ele><time>2014-6-6T20:36:57Z</time></trkpt>
<trkpt lat="46.51437026" lon="6.21450990"><ele></ele><time>2014-6-6T20:37:0Z</time></trkpt>
<trkpt lat="46.51483588" lon="6.21559032"><ele></ele><time>2014-6-6T20:37:3Z</time></trkpt>
<trkpt lat="46.51494677" lon="6.21582049"><ele></ele><time>2014-6-6T20:37:6Z</time></trkpt>
<trkpt lat="46.51500553" lon="6.21592702"><ele></ele><time>2014-6-6T20:37:9Z</time></trkpt>
<trkpt lat="46.51504425" lon="6.21610707"><ele></ele><time>2014-6-6T20:37:12Z</time></trkpt>
<trkpt lat="46.51486371" lon="6.21623690"><ele></ele><time>2014-6-6T20:37:15Z</time></trkpt>
<trkpt lat="46.51468190" lon="6.21631251"><ele></ele><time>2014-6-6T20:37:18Z</time></trkpt>
<trkpt lat="46.51461024" lon="6.21657402"><ele></ele><time>2014-6-6T20:37:21Z</time></trkpt>
<trkpt lat="46.51474401" lon="6.21711709"><ele></ele><time>2014-6-6T20:37:24Z</time></trkpt>
<trkpt lat="46.51480939" lon="6.21718884"><ele></ele><time>2014-6-6T20:37:27Z</time></trkpt>
<trkpt lat="46.51500721" lon="6.21740819"><ele></ele><time>2014-6-6T20:37:30Z</time></trkpt>
<trkpt lat="46.51502053" lon="6.21771488"><ele></ele><time>2014-6-6T20:37:33Z</time></trkpt>
<trkpt lat="46.51467713" lon="6.21873697"><ele></ele><time>2014-6-6T20:37:36Z</time></trkpt>
<trkpt lat="46.51455073" lon="6.21885465"><ele></ele><time>2014-6-6T20:37:39Z</time></trkpt>
<trkpt lat="46.51434009" lon="6.21884636"><ele></ele><time>2014-6-6T20:37:42Z</time></trkpt>
<trkpt lat="46.51355026" lon="6.21839935"><ele></ele><time>2014-6-6T20:37:45Z</time></trkpt>
<trkpt lat="46.51338011" lon="6.21834596"><ele></ele><time>2014-6-6T20:37:48Z</time></trkpt>
<trkpt lat="46.51298163" lon="6.21837345"><ele></ele><time>2014-6-6T20:37:51Z</time></trkpt>
<trkpt lat="46.51284191" lon="6.21830354"><ele></ele><time>2014-6-6T20:37:54Z</time></trkpt>
<trkpt lat="46.51267008" lon="6.21804488"><ele></ele><time>2014-6-6T20:37:57Z</time></trkpt>
<trkpt lat="46.51251920" lon="6.21772695"><ele></ele><time>2014-6-6T20:38:0Z</time></trkpt>
<trkpt lat="46.51247143" lon="6.21762327"><ele></ele><time>2014-6-6T20:38:3Z</time></trkpt>
<trkpt lat="46.51229004" lon="6.21723502"><ele></ele><time>2014-6-6T20:38:6Z</time></trkpt>
<trkpt lat="46.51188159" lon="6.21692690"><ele></ele><time>2014-6-6T20:38:9Z</time></trkpt>
<trkpt lat="46.51132277" lon="6.21681148"><ele></ele><time>2014-6-6T20:38:12Z</time></trkpt>
<trkpt lat="46.51106511" lon="6.21686555"><ele></ele><time>2014-6-6T20:38:15Z</time></trkpt>
<trkpt lat="46.51090024" lon="6.21695364"><ele></ele><time>2014-6-6T20:38:18Z</time></trkpt>
<trkpt lat="46.51074308" lon="6.21709798"><ele></ele><time>2014-6-6T20:38:21Z</time></trkpt>
<trkpt lat="46.51052389" lon="6.21739956"><ele></ele><time>2014-6-6T20:38:24Z</time></trkpt>
<trkpt lat="46.51020831" lon="6.21795653"><ele></ele><time>2014-6-6T20:38:27Z</time></trkpt>
<trkpt lat="46.50997044" lon="6.21810900"><ele></ele><time>2014-6-6T20:38:30Z</time></trkpt>
<trkpt lat="46.50977212" lon="6.21792736"><ele></ele><time>2014-6-6T20:38:33Z</time></trkpt>
<trkpt lat="46.50953885" lon="6.21763702"><ele></ele><time>2014-6-6T20:38:36Z</time></trkpt>
<trkpt lat="46.50947850" lon="6.21756384"><ele></ele><time>2014-6-6T20:38:39Z</time></trkpt>
<trkpt lat="46.50909034" lon="6.21711382"><ele></ele><time>2014-6-6T20:38:42Z</time></trkpt>
<trkpt lat="46.50873444" lon="6.21722412"><ele></ele><time>2014-6-6T20:38:45Z</time></trkpt>
<trkpt lat="46.50865305" lon="6.21740056"><ele></ele><time>2014-6-6T20:38:48Z</time></trkpt>
<trkpt lat="46.50851894" lon="6.21773358"><ele></ele><time>2014-6-6T20:38:51Z</time></trkpt>
<trkpt lat="46.50841065" lon="6.21796215"><ele></ele><time>2014-6-6T20:38:54Z</time></trkpt>
<trkpt lat="46.50824175" lon="6.21830296"><ele></ele><time>2014-6-6T20:38:57Z</time></trkpt>
<trkpt lat="46.50812658" lon="6.21854033"><ele></ele><time>2014-6-6T20:39:0Z</time></trkpt>
<trkpt lat="46.50806783" lon="6.21866237"><ele></ele><time>2014-6-6T20:39:3Z</time></trkpt>
<trkpt lat="46.50793791" lon="6.21890084"><ele></ele><time>2014-6-6T20:39:6Z</time></trkpt>
<trkpt lat="46.50760414" lon="6.21950610"><ele></ele><time>2014-6-6T20:39:9Z</time></trkpt>
<trkpt lat="46.50741345" lon="6.21985956"><ele></ele><time>2014-6-6T20:39:12Z</time></trkpt>
<trkpt lat="46.50711774" lon="6.22011756"><ele></ele><time>2014-6-6T20:39:15Z</time></trkpt>
<trkpt lat="46.50630847" lon="6.21977541"><ele></ele><time>2014-6-6T20:39:18Z</time></trkpt>
<trkpt lat="46.50600739" lon="6.21963107"><ele></ele><time>2014-6-6T20:39:21Z</time></trkpt>
<trkpt lat="46.50559726" lon="6.21934701"><ele></ele><time>2014-6-6T20:39:24Z</time></trkpt>
<trkpt lat="46.50527162" lon="6.21910578"><ele></ele><time>2014-6-6T20:39:27Z</time></trkpt>
<trkpt lat="46.50460023" lon="6.21857017"><ele></ele><time>2014-6-6T20:39:30Z</time></trkpt>
<trkpt lat="46.50427275" lon="6.21804387"><ele></ele><time>2014-6-6T20:39:33Z</time></trkpt>
<trkpt lat="46.50410755" lon="6.21789903"><ele></ele><time>2014-6-6T20:39:36Z</time></trkpt>
<trkpt lat="46.50393924" lon="6.21781128"><ele></ele><time>2014-6-6T20:39:39Z</time></trkpt>
<trkpt lat="46.50364855" lon="6.21752948"><ele></ele><time>2014-6-6T20:39:42Z</time></trkpt>
<trkpt lat="46.50349692" lon="6.21738723"><ele></ele><time>2014-6-6T20:39:45Z</time></trkpt>
<trkpt lat="46.50332610" lon="6.21725271"><ele></ele><time>2014-6-6T20:39:48Z</time></trkpt>
<trkpt lat="46.50324413" lon="6.21719814"><ele></ele><time>2014-6-6T20:39:51Z</time></trkpt>
<trkpt lat="46.50278513" lon="6.21699781"><ele></ele><time>2014-6-6T20:39:54Z</time></trkpt>
<trkpt lat="46.50229085" lon="6.21674451"><ele></ele><time>2014-6-6T20:39:57Z</time></trkpt>
<trkpt lat="46.50218046" lon="6.21668341"><ele></ele><time>2014-6-6T20:40:0Z</time></trkpt>
<trkpt lat="46.50197410" lon="6.21661467"><ele></ele><time>2014-6-6T20:40:3Z</time></trkpt>
<trkpt lat="46.50155920" lon="6.21660981"><ele></ele><time>2014-6-6T20:40:6Z</time></trkpt>
<trkpt lat="46.50146834" lon="6.21666212"><ele></ele><time>2014-6-6T20:40:9Z</time></trkpt>
<trkpt lat="46.50114446" lon="6.21696227"><ele></ele><time>2014-6-6T20:40:12Z</time></trkpt>
<trkpt lat="46.50058354" lon="6.21774648"><ele></ele><time>2014-6-6T20:40:15Z</time></trkpt>
<trkpt lat="46.50005045" lon="6.21866279"><ele></ele><time>2014-6-6T20:40:18Z</time></trkpt>
<trkpt lat="46.49999337" lon="6.21889330"><ele></ele><time>2014-6-6T20:40:21Z</time></trkpt>
<trkpt lat="46.49990553" lon="6.21954423"><ele></ele><time>2014-6-6T20:40:24Z</time></trkpt>
<trkpt lat="46.50004283" lon="6.22053305"><ele></ele><time>2014-6-6T20:40:27Z</time></trkpt>
<trkpt lat="46.50015196" lon="6.22100059"><ele></ele><time>2014-6-6T20:40:30Z</time></trkpt>
<trkpt lat="46.50029856" lon="6.22143259"><ele></ele><time>2014-6-6T20:40:33Z</time></trkpt>
<trkpt lat="46.50048950" lon="6.22185471"><ele></ele><time>2014-6-6T20:40:36Z</time></trkpt>
<trkpt lat="46.50088135" lon="6.22248410"><ele></ele><time>2014-6-6T20:40:39Z</time></trkpt>
<trkpt lat="46.50135577" lon="6.22321241"><ele></ele><time>2014-6-6T20:40:42Z</time></trkpt>
<trkpt lat="46.50149449" lon="6.22345816"><ele></ele><time>2014-6-6T20:40:45Z</time></trkpt>
<trkpt lat="46.50169767" lon="6.22402176"><ele></ele><time>2014-6-6T20:40:48Z</time></trkpt>
<trkpt lat="46.50160605" lon="6.22428395"><ele></ele><time>2014-6-6T20:40:51Z</time></trkpt>
<trkpt lat="46.50125200" lon="6.22440901"><ele></ele><time>2014-6-6T20:40:54Z</time></trkpt>
<trkpt lat="46.50094707" lon="6.22447095"><ele></ele><time>2014-6-6T20:40:57Z</time></trkpt>
<trkpt lat="46.50055052" lon="6.22452476"><ele></ele><time>2014-6-6T20:41:0Z</time></trkpt>
<trkpt lat="46.50023226" lon="6.22439258"><ele></ele><time>2014-6-6T20:41:3Z</time></trkpt>
<trkpt lat="46.50012891" lon="6.22431010"><ele></ele><time>2014-6-6T20:41:6Z</time></trkpt>
<trkpt lat="46.49968090" lon="6.22415688"><ele></ele><time>2014-6-6T20:41:9Z</time></trkpt>
<trkpt lat="46.49931779" lon="6.22417741"><ele></ele><time>2014-6-6T20:41:12Z</time></trkpt>
<trkpt lat="46.49906290" lon="6.22423341"><ele></ele><time>2014-6-6T20:41:15Z</time></trkpt>
<trkpt lat="46.49767770" lon="6.22420382"><ele></ele><time>2014-6-6T20:41:18Z</time></trkpt>
<trkpt lat="46.49756782" lon="6.22420097"><ele></ele><time>2014-6-6T20:41:21Z</time></trkpt>
<trkpt lat="46.49713732" lon="6.22393794"><ele></ele><time>2014-6-6T20:41:24Z</time></trkpt>
<trkpt lat="46.49660273" lon="6.22349638"><ele></ele><time>2014-6-6T20:41:27Z</time></trkpt>
<trkpt lat="46.49617257" lon="6.22311752"><ele></ele><time>2014-6-6T20:41:30Z</time></trkpt>
<trkpt lat="46.49583260" lon="6.22262752"><ele></ele><time>2014-6-6T20:41:33Z</time></trkpt>
<trkpt lat="46.49562908" lon="6.22220255"><ele></ele><time>2014-6-6T20:41:36Z</time></trkpt>
<trkpt lat="46.49520806" lon="6.22203802"><ele></ele><time>2014-6-6T20:41:39Z</time></trkpt>
<trkpt lat="46.49516699" lon="6.22213592"><ele></ele><time>2014-6-6T20:41:42Z</time></trkpt>
<trkpt lat="46.49517411" lon="6.22238654"><ele></ele><time>2014-6-6T20:41:45Z</time></trkpt>
<trkpt lat="46.49525559" lon="6.22306497"><ele></ele><time>2014-6-6T20:41:48Z</time></trkpt>
<trkpt lat="46.49527134" lon="6.22349320"><ele></ele><time>2014-6-6T20:41:51Z</time></trkpt>
<trkpt lat="46.49532541" lon="6.22392537"><ele></ele><time>2014-6-6T20:41:54Z</time></trkpt>
<trkpt lat="46.49537293" lon="6.22406074"><ele></ele><time>2014-6-6T20:41:57Z</time></trkpt>
<trkpt lat="46.49563311" lon="6.22473062"><ele></ele><time>2014-6-6T20:42:0Z</time></trkpt>
<trkpt lat="46.49575079" lon="6.22499725"><ele></ele><time>2014-6-6T20:42:3Z</time></trkpt>
<trkpt lat="46.49597735" lon="6.22569202"><ele></ele><time>2014-6-6T20:42:6Z</time></trkpt>
<trkpt lat="46.49606670" lon="6.22599185"><ele></ele><time>2014-6-6T20:42:9Z</time></trkpt>
<trkpt lat="46.49615044" lon="6.22629720"><ele></ele><time>2014-6-6T20:42:12Z</time></trkpt>
<trkpt lat="46.49623560" lon="6.22660833"><ele></ele><time>2014-6-6T20:42:15Z</time></trkpt>
<trkpt lat="46.49627550" lon="6.22676675"><ele></ele><time>2014-6-6T20:42:18Z</time></trkpt>
<trkpt lat="46.49639226" lon="6.22724997"><ele></ele><time>2014-6-6T20:42:21Z</time></trkpt>
<trkpt lat="46.49669015" lon="6.22841497"><ele></ele><time>2014-6-6T20:42:24Z</time></trkpt>
<trkpt lat="46.49847315" lon="6.23548376"><ele></ele><time>2014-6-6T20:42:27Z</time></trkpt>
<trkpt lat="46.49867062" lon="6.23631768"><ele></ele><time>2014-6-6T20:42:30Z</time></trkpt>
<trkpt lat="46.49887992" lon="6.23743507"><ele></ele><time>2014-6-6T20:42:33Z</time></trkpt>
<trkpt lat="46.49851313" lon="6.23741998"><ele></ele><time>2014-6-6T20:42:36Z</time></trkpt>
<trkpt lat="46.49787979" lon="6.23738201"><ele></ele><time>2014-6-6T20:42:39Z</time></trkpt>
<trkpt lat="46.49684203" lon="6.23540321"><ele></ele><time>2014-6-6T20:42:42Z</time></trkpt>
<trkpt lat="46.49677003" lon="6.23582960"><ele></ele><time>2014-6-6T20:42:45Z</time></trkpt>
<trkpt lat="46.49596872" lon="6.23534068"><ele></ele><time>2014-6-6T20:42:48Z</time></trkpt>
<trkpt lat="46.49530688" lon="6.23497817"><ele></ele><time>2014-6-6T20:42:51Z</time></trkpt>
<trkpt lat="46.49511527" lon="6.23492444"><ele></ele><time>2014-6-6T20:42:54Z</time></trkpt>
<trkpt lat="46.49467941" lon="6.23473744"><ele></ele><time>2014-6-6T20:42:57Z</time></trkpt>
<trkpt lat="46.49375841" lon="6.23505671"><ele></ele><time>2014-6-6T20:43:0Z</time></trkpt>
<trkpt lat="46.49342347" lon="6.23580772"><ele></ele><time>2014-6-6T20:43:3Z</time></trkpt>
<trkpt lat="46.49301426" lon="6.23646101"><ele></ele><time>2014-6-6T20:43:6Z</time></trkpt>
<trkpt lat="46.49255242" lon="6.23769826"><ele></ele><time>2014-6-6T20:43:9Z</time></trkpt>
<trkpt lat="46.49264865" lon="6.23821568"><ele></ele><time>2014-6-6T20:43:12Z</time></trkpt>
<trkpt lat="46.49325768" lon="6.24035155"><ele></ele><time>2014-6-6T20:43:15Z</time></trkpt>
<trkpt lat="46.49336446" lon="6.24119452"><ele></ele><time>2014-6-6T20:43:18Z</time></trkpt>
<trkpt lat="46.49288359" lon="6.24156768"><ele></ele><time>2014-6-6T20:43:21Z</time></trkpt>
<trkpt lat="46.49225797" lon="6.24060737"><ele></ele><time>2014-6-6T20:43:24Z</time></trkpt>
<trkpt lat="46.49191959" lon="6.24059815"><ele></ele><time>2014-6-6T20:43:27Z</time></trkpt>
<trkpt lat="46.49192403" lon="6.24061894"><ele></ele><time>2014-6-6T20:43:30Z</time></trkpt>
<trkpt lat="46.49201388" lon="6.24064182"><ele></ele><time>2014-6-6T20:43:33Z</time></trkpt>
<trkpt lat="46.49201950" lon="6.24064299"><ele></ele><time>2014-6-6T20:43:36Z</time></trkpt>
</trkseg></trk></gpx>